createdAt,value
2022-11-14T00:04:25.445Z,21.13
2022-11-14T00:09:21.611Z,22.33
2022-11-14T00:14:16.198Z,21.80
2022-11-14T00:19:09.418Z,23.40
2022-11-14T00:24:02.957Z,21.63
2022-11-14T00:28:56.754Z,24.23
2022-11-14T00:33:51.439Z,22.07
2022-11-14T00:38:44.777Z,21.37
2022-11-14T00:43:38.007Z,21.37
2022-11-14T00:48:32.042Z,21.20
2022-11-14T00:53:26.905Z,25.70
2022-11-14T00:58:20.185Z,24.40
2022-11-14T01:03:13.430Z,25.60
2022-11-14T01:08:06.876Z,25.20
2022-11-14T01:13:01.701Z,24.67
2022-11-14T01:17:55.045Z,25.27
2022-11-14T01:22:48.290Z,26.17
2022-11-14T01:27:41.949Z,28.13
2022-11-14T01:32:36.564Z,24.33
2022-11-14T01:37:29.811Z,25.70
2022-11-14T01:42:27.166Z,25.73
2022-11-14T01:47:25.739Z,24.43
2022-11-14T01:52:25.754Z,25.57
2022-11-14T01:57:26.546Z,25.00
2022-11-14T02:02:22.912Z,24.67
2022-11-14T02:07:17.137Z,27.33
2022-11-14T02:12:17.786Z,24.00
2022-11-14T02:22:25.800Z,22.93
2022-11-14T02:27:19.143Z,24.63
2022-11-14T02:32:12.502Z,26.90
2022-11-14T02:37:06.189Z,29.60
2022-11-14T02:42:00.856Z,27.93
2022-11-14T02:46:54.351Z,32.37
2022-11-14T02:51:47.622Z,26.70
2022-11-14T02:56:40.887Z,29.70
2022-11-14T03:01:35.957Z,23.13
2022-11-14T03:06:29.645Z,25.73
2022-11-14T03:11:23.075Z,25.60
2022-11-14T03:16:16.536Z,29.80
2022-11-14T03:21:14.963Z,27.20
2022-11-14T03:26:11.368Z,28.60
2022-11-14T03:31:05.607Z,27.47
2022-11-14T03:35:59.023Z,26.13
2022-11-14T03:40:53.897Z,25.83
2022-11-14T03:45:48.043Z,27.17
2022-11-14T03:50:41.424Z,30.43
2022-11-14T03:55:34.856Z,27.50
2022-11-14T04:00:30.014Z,27.53
2022-11-14T04:05:23.496Z,24.80
2022-11-14T04:10:17.780Z,25.37
2022-11-14T04:15:11.984Z,26.40
2022-11-14T04:20:08.189Z,24.77
2022-11-14T04:25:01.504Z,26.70
2022-11-14T04:29:54.786Z,26.07
2022-11-14T04:34:48.187Z,23.17
2022-11-14T04:39:42.876Z,25.93
2022-11-14T04:44:36.277Z,24.50
2022-11-14T04:49:29.554Z,23.90
2022-11-14T04:54:22.946Z,21.60
2022-11-14T04:59:20.907Z,23.77
2022-11-14T05:04:14.702Z,24.20
2022-11-14T05:09:08.246Z,23.33
2022-11-14T05:14:01.492Z,22.33
2022-11-14T05:18:56.517Z,23.47
2022-11-14T05:23:49.751Z,23.63
2022-11-14T05:28:43.100Z,23.97
2022-11-14T05:33:37.348Z,22.23
2022-11-14T05:38:32.476Z,25.77
2022-11-14T05:43:26.606Z,25.13
2022-11-14T05:48:19.956Z,24.07
2022-11-14T05:53:13.262Z,21.13
2022-11-14T05:58:07.894Z,20.53
2022-11-14T06:03:01.142Z,23.67
2022-11-14T06:07:57.863Z,26.73
2022-11-14T06:12:51.186Z,30.90
2022-11-14T06:17:46.361Z,23.57
2022-11-14T06:22:39.647Z,23.80
2022-11-14T06:27:33.698Z,21.53
2022-11-14T06:32:26.942Z,23.60
2022-11-14T06:37:21.524Z,22.10
2022-11-14T06:42:16.938Z,22.67
2022-11-14T06:47:10.600Z,23.47
2022-11-14T06:52:03.910Z,22.37
2022-11-14T06:56:58.625Z,31.50
2022-11-14T07:01:51.986Z,25.37
2022-11-14T07:06:45.368Z,23.43
2022-11-14T07:11:41.094Z,28.57
2022-11-14T07:16:37.243Z,38.27
2022-11-14T07:21:32.476Z,28.03
2022-11-14T07:26:26.248Z,25.00
2022-11-14T07:31:21.799Z,24.87
2022-11-14T07:36:17.966Z,35.47
2022-11-14T07:41:14.144Z,23.30
2022-11-14T07:46:11.568Z,25.17
2022-11-14T07:51:07.673Z,26.13
2022-11-14T07:56:09.671Z,28.43
2022-11-14T08:01:03.956Z,22.13
2022-11-14T08:06:02.652Z,23.63
2022-11-14T08:10:58.909Z,28.73
2022-11-14T08:15:54.370Z,28.67
2022-11-14T08:20:48.761Z,27.53
2022-11-14T08:25:43.003Z,32.20
2022-11-14T08:30:37.197Z,28.33
2022-11-14T08:35:32.155Z,24.60
2022-11-14T08:40:25.612Z,23.17
2022-11-14T08:45:19.254Z,24.53
2022-11-14T08:50:12.543Z,22.77
2022-11-14T08:55:08.334Z,24.93
2022-11-14T09:00:01.639Z,26.07
2022-11-14T09:04:55.065Z,33.50
2022-11-14T09:09:48.562Z,28.23
2022-11-14T09:14:45.917Z,37.00
2022-11-14T09:19:47.102Z,38.50
2022-11-14T09:24:49.222Z,28.47
2022-11-14T09:30:09.022Z,28.53
2022-11-14T09:35:03.885Z,28.37
2022-11-14T09:40:10.800Z,29.27
2022-11-14T09:45:16.655Z,28.17
2022-11-14T09:50:26.583Z,23.87
2022-11-14T09:55:26.414Z,25.03
2022-11-14T10:00:42.687Z,22.80
2022-11-14T10:06:14.157Z,26.93
2022-11-14T10:11:27.204Z,25.57
2022-11-14T10:16:36.773Z,28.20
2022-11-14T10:22:01.874Z,29.40
2022-11-14T10:27:12.420Z,38.90
2022-11-14T10:32:29.809Z,18.50
2022-11-14T10:37:40.008Z,18.43
2022-11-14T10:42:42.910Z,16.87
2022-11-14T10:48:07.737Z,16.70
2022-11-14T10:53:18.109Z,13.93
2022-11-14T10:58:22.708Z,14.00
2022-11-14T11:03:48.515Z,12.37
2022-11-14T11:09:16.629Z,17.83
2022-11-14T11:14:23.946Z,12.37
2022-11-14T11:25:16.819Z,13.03
2022-11-14T11:37:34.357Z,12.70
2022-11-14T11:43:23.783Z,11.17
2022-11-14T11:48:07.091Z,10.60
2022-11-14T11:53:19.294Z,12.07
2022-11-14T11:58:29.971Z,11.97
2022-11-14T12:09:12.296Z,12.57
2022-11-14T12:15:09.337Z,12.37
2022-11-14T12:20:50.849Z,14.63
2022-11-14T12:26:07.632Z,11.37
2022-11-14T12:31:15.849Z,14.47
2022-11-14T12:36:15.512Z,15.77
2022-11-14T12:41:30.124Z,14.50
2022-11-14T12:46:26.055Z,16.33
2022-11-14T12:51:53.600Z,16.83
2022-11-14T12:57:35.014Z,15.67
2022-11-14T13:03:31.839Z,17.87
2022-11-14T13:09:40.707Z,15.67
2022-11-14T13:21:04.164Z,12.93
2022-11-14T13:27:05.826Z,12.43
2022-11-14T13:32:14.066Z,16.97
2022-11-14T13:37:43.071Z,12.90
2022-11-14T13:43:03.360Z,22.17
2022-11-14T13:48:47.760Z,21.33
2022-11-14T13:53:57.688Z,23.83
2022-11-14T13:59:44.028Z,21.77
2022-11-14T14:05:10.237Z,19.43
2022-11-14T14:10:28.280Z,21.57
2022-11-14T14:15:42.903Z,19.63
2022-11-14T14:20:50.104Z,21.57
2022-11-14T14:26:04.929Z,21.47
2022-11-14T14:31:14.727Z,19.47
2022-11-14T14:36:36.031Z,19.87
2022-11-14T14:41:41.726Z,20.87
2022-11-14T14:46:37.285Z,19.53
2022-11-14T14:51:38.234Z,17.97
2022-11-14T14:56:33.071Z,47.80
2022-11-14T15:01:40.389Z,21.93
2022-11-14T15:06:42.240Z,19.23
2022-11-14T15:11:45.451Z,20.40
2022-11-14T15:16:41.063Z,20.33
2022-11-14T15:21:42.562Z,20.00
2022-11-14T15:26:43.157Z,23.57
2022-11-14T15:31:50.016Z,25.43
2022-11-14T15:37:22.173Z,22.20
2022-11-14T15:42:29.739Z,22.20
2022-11-14T15:47:30.766Z,19.10
2022-11-14T15:52:33.546Z,22.33
2022-11-14T15:57:31.425Z,22.57
2022-11-14T16:02:33.106Z,22.00
2022-11-14T16:07:28.050Z,16.83
2022-11-14T16:12:24.879Z,17.77
2022-11-14T16:17:19.882Z,21.57
2022-11-14T16:22:18.827Z,21.40
2022-11-14T16:27:12.439Z,25.93
2022-11-14T16:32:08.102Z,25.70
2022-11-14T16:37:16.225Z,21.97
2022-11-14T16:42:15.038Z,20.57
2022-11-14T16:47:12.144Z,35.03
2022-11-14T16:52:08.925Z,32.60
2022-11-14T16:57:04.555Z,27.50
2022-11-14T17:02:02.949Z,19.50
2022-11-14T17:07:04.216Z,20.50
2022-11-14T17:12:04.245Z,25.30
2022-11-14T17:17:02.018Z,32.83
2022-11-14T17:21:57.795Z,29.80
2022-11-14T17:26:53.155Z,23.93
2022-11-14T17:31:48.000Z,20.87
2022-11-14T17:36:55.092Z,22.00
2022-11-14T17:41:48.700Z,16.47
2022-11-14T17:46:42.341Z,21.80
2022-11-14T17:51:44.133Z,14.53
2022-11-14T17:56:46.503Z,16.43
2022-11-14T18:01:43.931Z,17.30
2022-11-14T18:06:47.349Z,13.47
2022-11-14T18:11:50.269Z,16.53
2022-11-14T18:22:14.294Z,19.50
2022-11-14T18:27:19.747Z,22.87
2022-11-14T18:32:18.369Z,25.27
2022-11-14T18:37:19.267Z,19.20
2022-11-14T18:42:15.847Z,19.90
2022-11-14T18:47:25.427Z,29.80
2022-11-14T18:52:21.148Z,48.73
2022-11-14T18:57:26.407Z,61.57
2022-11-14T19:02:27.320Z,40.03
2022-11-14T19:07:34.551Z,34.67
2022-11-14T19:12:28.015Z,59.03
2022-11-14T19:18:46.352Z,39.90
2022-11-14T19:24:25.178Z,58.60
2022-11-14T19:29:54.629Z,30.40
2022-11-14T19:35:45.337Z,31.13
2022-11-14T19:42:15.735Z,51.77
2022-11-14T20:06:48.283Z,46.57
2022-11-14T20:50:22.504Z,21.97
2022-11-14T20:56:00.750Z,38.07
2022-11-14T21:00:57.830Z,25.57
2022-11-14T21:05:53.623Z,62.23
2022-11-14T21:11:07.411Z,48.37
2022-11-14T21:16:04.753Z,28.27
2022-11-14T21:21:04.212Z,100.87
2022-11-14T21:26:08.162Z,45.00
2022-11-14T21:31:18.203Z,77.43
2022-11-14T21:36:44.966Z,41.80
2022-11-14T21:41:30.813Z,64.37
2022-11-14T21:46:32.413Z,122.23
2022-11-14T21:51:29.554Z,45.30
2022-11-14T21:56:25.800Z,150.30
2022-11-14T22:01:44.670Z,25.30
2022-11-14T22:06:40.376Z,145.77
2022-11-14T22:11:33.912Z,27.30
2022-11-14T22:16:28.094Z,15.27
2022-11-14T22:21:24.390Z,153.50
2022-11-14T22:26:28.905Z,181.17
2022-11-14T22:31:24.488Z,108.70
2022-11-14T22:36:28.598Z,204.50
2022-11-14T22:41:32.283Z,206.63
2022-11-14T22:46:33.006Z,280.90
2022-11-14T22:51:28.749Z,74.60
2022-11-14T22:56:32.430Z,136.97
2022-11-14T23:01:28.892Z,79.13
2022-11-14T23:06:30.141Z,159.40
2022-11-14T23:11:33.052Z,144.23
2022-11-14T23:16:36.218Z,19.97
2022-11-14T23:21:40.661Z,191.83
2022-11-14T23:26:36.023Z,83.00
2022-11-14T23:31:40.422Z,112.93
2022-11-14T23:36:33.691Z,21.50
2022-11-14T23:41:27.061Z,81.00
2022-11-14T23:46:21.712Z,109.87
2022-11-14T23:51:17.906Z,166.10
2022-11-14T23:56:31.757Z,62.60
